Time;durP1;ratioP1;P1;durP2;ratioP2;P2;SDS_P1;SDS_P2;PMS_P1;PMS_P2;Temp;Humidity;BMP_temperature;BMP_pressure;BME280_temperature;BME280_humidity;BME280_pressure;Samples;Min_cycle;Max_cycle;Signal;HPM_P1;HPM_P2
2022/08/02 00:00:01;;;;;;;7.10;1.58;;;;;;;18.54;100.00;101816.75;5066393;28;20471;-72
2022/08/02 00:02:26;;;;;;;3.83;1.60;;;;;;;18.54;100.00;101811.41;5077615;28;20059;-72
2022/08/02 00:04:52;;;;;;;4.97;1.75;;;;;;;18.54;100.00;101812.34;5081222;28;20052;-72
2022/08/02 00:07:17;;;;;;;4.45;1.42;;;;;;;18.51;100.00;101800.78;5087715;28;20064;-71
2022/08/02 00:09:43;;;;;;;6.53;1.30;;;;;;;18.49;100.00;101808.78;5071528;28;20020;-71
2022/08/02 00:12:09;;;;;;;4.95;1.58;;;;;;;18.37;100.00;101800.78;5073564;28;20028;-71
2022/08/02 00:14:35;;;;;;;10.13;2.60;;;;;;;18.35;100.00;101802.56;5074090;28;20047;-72
2022/08/02 00:17:00;;;;;;;4.88;1.58;;;;;;;18.31;100.00;101799.03;5072984;28;20036;-72
2022/08/02 00:19:25;;;;;;;8.40;1.58;;;;;;;18.25;100.00;101793.69;5079198;28;20024;-72
2022/08/02 00:21:51;;;;;;;7.80;1.73;;;;;;;18.25;100.00;101787.47;5069074;28;20068;-72
2022/08/02 00:24:16;;;;;;;8.43;1.85;;;;;;;18.25;100.00;101792.81;5077247;28;20025;-71
2022/08/02 00:26:42;;;;;;;8.20;1.95;;;;;;;18.17;100.00;101793.66;5079728;28;20476;-71
2022/08/02 00:29:07;;;;;;;5.35;1.48;;;;;;;18.18;100.00;101795.44;5089731;28;20098;-70
2022/08/02 00:31:32;;;;;;;4.88;1.40;;;;;;;18.13;100.00;101799.88;5073584;28;20098;-73
2022/08/02 00:33:58;;;;;;;4.13;1.50;;;;;;;18.17;100.00;101798.13;5066057;28;20045;-71
2022/08/02 00:36:23;;;;;;;5.60;1.30;;;;;;;18.19;100.00;101797.25;5064336;28;20491;-71
2022/08/02 00:38:49;;;;;;;4.30;1.38;;;;;;;18.23;100.00;101789.25;5058955;28;20083;-72
2022/08/02 00:41:17;;;;;;;10.90;1.90;;;;;;;18.22;100.00;101780.38;5085920;28;20021;-72
2022/08/02 00:43:44;;;;;;;4.55;1.58;;;;;;;18.21;100.00;101786.56;5077153;28;20126;-71
2022/08/02 00:46:10;;;;;;;3.72;1.40;;;;;;;18.26;100.00;101783.91;5075784;28;20032;-70
2022/08/02 00:48:35;;;;;;;3.85;1.50;;;;;;;18.25;100.00;101791.00;5074441;28;20028;-72
2022/08/02 00:51:01;;;;;;;3.78;1.25;;;;;;;18.20;100.00;101780.38;5076783;28;20028;-72
2022/08/02 00:53:26;;;;;;;4.38;1.75;;;;;;;18.16;100.00;101778.59;5075710;28;20090;-71
2022/08/02 00:55:52;;;;;;;8.35;1.30;;;;;;;18.08;100.00;101777.72;5075281;28;20028;-71
2022/08/02 00:58:17;;;;;;;2.13;1.10;;;;;;;18.04;100.00;101773.25;5076094;28;20052;-71
2022/08/02 01:00:43;;;;;;;2.28;1.40;;;;;;;18.01;100.00;101771.50;5079460;28;20035;-72
2022/08/02 01:03:08;;;;;;;4.97;1.38;;;;;;;17.96;100.00;101769.69;5064123;28;20025;-72
2022/08/02 01:05:33;;;;;;;3.38;1.30;;;;;;;17.89;100.00;101770.53;5061308;28;20025;-72
2022/08/02 01:07:58;;;;;;;3.53;1.45;;;;;;;17.86;100.00;101771.44;5080417;28;20032;-73
2022/08/02 01:10:24;;;;;;;4.40;1.48;;;;;;;17.86;100.00;101764.34;5071460;28;20074;-72
2022/08/02 01:12:49;;;;;;;4.20;2.10;;;;;;;17.78;100.00;101771.41;5077337;28;20078;-71
2022/08/02 01:15:16;;;;;;;4.47;1.52;;;;;;;17.74;100.00;101768.75;5081948;28;20032;-72
2022/08/02 01:17:55;;;;;;;4.20;1.33;;;;;;;17.67;100.00;101763.41;5090213;28;20540;-72
2022/08/02 01:20:50;;;;;;;4.03;1.40;;;;;;;17.64;100.00;101765.19;5081275;28;20024;-72
2022/08/02 01:23:37;;;;;;;9.30;1.42;;;;;;;17.61;100.00;101763.41;5075970;28;20050;-71
2022/08/02 01:26:23;;;;;;;3.45;1.73;;;;;;;17.57;100.00;101766.06;5083378;28;20099;-71
2022/08/02 01:29:00;;;;;;;5.32;1.60;;;;;;;17.55;100.00;101763.38;5076403;28;20473;-72
2022/08/02 01:31:25;;;;;;;7.50;1.65;;;;;;;17.54;100.00;101764.28;5087187;28;20495;-71
2022/08/02 01:34:01;;;;;;;3.20;1.58;;;;;;;17.54;100.00;101772.28;5089477;28;20088;-72
2022/08/02 01:36:31;;;;;;;2.85;1.30;;;;;;;17.55;100.00;101767.81;5081560;28;20030;-71
2022/08/02 01:39:00;;;;;;;5.72;2.20;;;;;;;17.48;100.00;101773.13;5066549;28;20020;-72
2022/08/02 01:41:28;;;;;;;5.50;1.65;;;;;;;17.43;100.00;101769.59;5082334;28;20035;-71
2022/08/02 01:43:57;;;;;;;4.75;1.80;;;;;;;17.43;100.00;101774.91;5056460;28;20037;-71
2022/08/02 01:46:24;;;;;;;2.28;1.50;;;;;;;17.42;100.00;101769.59;5075498;28;20024;-72
2022/08/02 01:48:52;;;;;;;7.85;2.03;;;;;;;17.43;100.00;101768.66;5069921;28;20028;-72
2022/08/02 01:52:20;;;;;;;5.60;1.92;;;;;;;17.42;100.00;101762.47;5074826;28;20106;-71
2022/08/02 01:54:08;;;;;;;4.07;1.80;;;;;;;17.35;100.00;101758.03;5061375;28;20092;-72
2022/08/02 01:56:34;;;;;;;7.00;1.80;;;;;;;17.26;100.00;101761.53;5071301;28;20036;-71
2022/08/02 01:59:00;;;;;;;5.63;1.75;;;;;;;17.25;100.00;101761.53;5060404;28;20396;-72
2022/08/02 02:01:26;;;;;;;4.47;1.63;;;;;;;17.23;100.00;101761.53;5069047;28;20093;-72
2022/08/02 02:03:51;;;;;;;5.22;1.88;;;;;;;17.18;100.00;101753.50;5081266;28;20024;-73
2022/08/02 02:06:17;;;;;;;5.00;1.90;;;;;;;17.19;100.00;101757.97;5073666;28;20384;-72
2022/08/02 02:08:43;;;;;;;3.17;2.00;;;;;;;17.17;100.00;101765.06;5073329;28;20036;-70
2022/08/02 02:11:09;;;;;;;5.82;1.95;;;;;;;17.19;100.00;101759.75;5056233;28;20025;-71
2022/08/02 02:13:41;;;;;;;10.82;1.80;;;;;;;17.16;100.00;101749.97;5066307;28;20063;-72
2022/08/02 02:16:07;;;;;;;6.63;2.00;;;;;;;17.13;100.00;101749.97;5074821;28;20032;-72
2022/08/02 02:18:39;;;;;;;4.97;2.05;;;;;;;17.10;100.00;101747.28;5068746;28;20029;-72
2022/08/02 02:21:04;;;;;;;5.40;1.90;;;;;;;17.07;100.00;101751.72;5074827;28;20036;-71
2022/08/02 02:23:30;;;;;;;4.32;1.90;;;;;;;17.02;100.00;101754.34;5082694;28;20017;-72
2022/08/02 02:25:57;;;;;;;6.32;1.73;;;;;;;16.97;100.00;101748.09;5078639;28;20394;-71
2022/08/02 02:28:29;;;;;;;6.75;2.00;;;;;;;16.94;100.00;101754.31;5072897;28;20042;-71
2022/08/02 02:31:00;;;;;;;8.02;2.08;;;;;;;16.92;100.00;101752.53;5074073;28;20024;-72
2022/08/02 02:33:29;;;;;;;4.07;1.98;;;;;;;16.95;100.00;101749.88;5083862;28;20403;-71
2022/08/02 02:35:56;;;;;;;6.85;1.90;;;;;;;16.94;100.00;101745.44;5074556;28;20033;-71
2022/08/02 02:38:23;;;;;;;6.40;1.77;;;;;;;16.93;100.00;101741.00;5076540;28;20027;-71
2022/08/02 02:40:49;;;;;;;6.00;2.20;;;;;;;16.94;100.00;101743.69;5075000;28;20020;-72
2022/08/02 02:43:16;;;;;;;4.85;2.30;;;;;;;16.93;100.00;101741.91;5072698;28;20376;-72
2022/08/02 02:45:43;;;;;;;6.55;1.70;;;;;;;16.91;100.00;101737.47;5072853;28;20037;-71
2022/08/02 02:48:12;;;;;;;4.65;1.90;;;;;;;16.92;100.00;101734.81;5074155;28;20028;-72
2022/08/02 02:50:38;;;;;;;7.28;1.70;;;;;;;16.92;100.00;101732.16;5072706;28;20082;-72
2022/08/02 02:53:05;;;;;;;6.00;1.80;;;;;;;16.93;100.00;101730.34;5075899;28;20040;-72
2022/08/02 02:55:31;;;;;;;4.22;1.77;;;;;;;16.95;100.00;101733.94;5093091;28;20031;-72
2022/08/02 02:57:57;;;;;;;3.17;1.65;;;;;;;16.96;100.00;101730.41;5072093;28;20020;-72
2022/08/02 03:03:08;;;;;;;4.07;1.73;;;;;;;16.92;100.00;101728.59;5075859;28;20384;-72
2022/08/02 03:05:34;;;;;;;3.10;1.50;;;;;;;16.90;100.00;101725.94;5073080;28;20028;-71
2022/08/02 03:07:59;;;;;;;3.67;1.58;;;;;;;16.85;100.00;101723.22;5084752;28;20094;-71
2022/08/02 03:10:26;;;;;;;4.78;1.80;;;;;;;16.82;100.00;101715.22;5078813;28;20032;-71
2022/08/02 03:12:51;;;;;;;3.78;1.60;;;;;;;16.79;100.00;101712.56;5073574;28;20108;-71
2022/08/02 03:15:17;;;;;;;5.55;1.67;;;;;;;16.75;100.00;101704.56;5071868;28;20113;-71
2022/08/02 03:17:45;;;;;;;10.13;1.50;;;;;;;16.77;100.00;101709.00;5080109;28;20023;-72
2022/08/02 03:20:16;;;;;;;7.30;1.40;;;;;;;16.74;100.00;101705.44;5080649;28;20078;-71
2022/08/02 03:22:42;;;;;;;4.97;2.17;;;;;;;16.74;100.00;101705.44;5082300;28;20016;-71
2022/08/02 03:25:09;;;;;;;5.97;1.60;;;;;;;16.74;100.00;101697.47;5067920;28;20024;-71
2022/08/02 03:27:35;;;;;;;4.53;1.50;;;;;;;16.69;100.00;101687.69;5072614;28;20032;-71
2022/08/02 03:30:01;;;;;;;3.13;1.35;;;;;;;16.67;100.00;101692.13;5083833;28;20073;-72
2022/08/02 03:32:27;;;;;;;4.20;1.55;;;;;;;16.61;100.00;101685.91;5072294;28;20059;-72
2022/08/02 03:34:52;;;;;;;5.53;1.25;;;;;;;16.65;100.00;101695.66;5076112;28;20577;-73
2022/08/02 03:37:19;;;;;;;6.45;1.38;;;;;;;16.64;100.00;101707.16;5074229;28;20043;-71
2022/08/02 03:39:45;;;;;;;5.82;1.60;;;;;;;16.64;100.00;101701.84;5072954;28;20027;-72
2022/08/02 03:42:11;;;;;;;4.40;1.45;;;;;;;16.60;100.00;101700.06;5089110;28;20036;-71
2022/08/02 03:44:38;;;;;;;5.05;1.30;;;;;;;16.54;100.00;101700.03;5075514;28;20064;-72
2022/08/02 03:47:05;;;;;;;6.15;1.25;;;;;;;16.56;100.00;101698.25;5058290;28;20040;-72
2022/08/02 03:49:31;;;;;;;5.30;1.40;;;;;;;16.55;100.00;101685.84;5070529;28;20024;-72
2022/08/02 03:51:58;;;;;;;2.40;1.35;;;;;;;16.49;100.00;101671.69;5073301;28;20032;-72
2022/08/02 03:54:24;;;;;;;3.95;1.45;;;;;;;16.51;100.00;101674.34;5080885;28;20388;-71
2022/08/02 03:56:50;;;;;;;3.97;1.40;;;;;;;16.48;100.00;101669.91;5072230;28;20048;-72
2022/08/02 03:59:15;;;;;;;2.42;1.20;;;;;;;16.46;100.00;101671.63;5087163;28;20111;-71
2022/08/02 04:01:41;;;;;;;3.30;1.30;;;;;;;16.40;100.00;101668.97;5074071;28;20059;-72
2022/08/02 04:04:07;;;;;;;5.88;1.35;;;;;;;16.40;100.00;101674.28;5066158;28;20089;-72
2022/08/02 04:06:33;;;;;;;8.02;1.40;;;;;;;16.37;100.00;101681.31;5071306;28;20032;-70
2022/08/02 04:08:58;;;;;;;6.07;1.70;;;;;;;16.37;100.00;101678.69;5072745;28;20036;-71
2022/08/02 04:11:29;;;;;;;3.75;1.20;;;;;;;16.31;100.00;101675.09;5072308;28;20055;-71
2022/08/02 04:13:55;;;;;;;2.55;1.40;;;;;;;16.29;100.00;101681.28;5073276;28;20049;-71
2022/08/02 04:16:28;;;;;;;6.85;1.70;;;;;;;16.28;100.00;101676.88;5076222;28;20063;-71
2022/08/02 04:19:02;;;;;;;5.63;1.50;;;;;;;16.25;100.00;101677.72;5077824;28;20016;-72
2022/08/02 04:21:33;;;;;;;3.55;1.27;;;;;;;16.23;100.00;101678.59;5087016;28;20059;-71
2022/08/02 04:24:02;;;;;;;2.25;1.20;;;;;;;16.17;100.00;101680.31;5083569;28;20032;-71
2022/08/02 04:26:29;;;;;;;5.05;1.50;;;;;;;16.12;100.00;101675.88;5077439;28;20059;-73
2022/08/02 04:28:56;;;;;;;3.60;1.38;;;;;;;16.06;100.00;101682.03;5082370;28;20055;-70
2022/08/02 04:31:22;;;;;;;5.25;1.50;;;;;;;16.11;100.00;101674.09;5078483;28;20024;-72
2022/08/02 04:33:48;;;;;;;2.33;1.52;;;;;;;16.17;100.00;101671.47;5075708;28;20062;-72
2022/08/02 04:36:14;;;;;;;3.45;1.55;;;;;;;16.14;100.00;101669.69;5087316;28;20031;-72
2022/08/02 04:38:40;;;;;;;3.00;1.58;;;;;;;16.13;100.00;101670.56;5074993;28;20020;-72
2022/08/02 04:41:06;;;;;;;3.70;1.67;;;;;;;16.11;100.00;101672.31;5088101;28;20023;-71
2022/08/02 04:43:32;;;;;;;2.78;1.42;;;;;;;16.11;100.00;101680.25;5067877;28;20031;-72
2022/08/02 04:45:57;;;;;;;3.38;1.27;;;;;;;16.20;100.00;101668.84;5078332;28;20433;-72
2022/08/02 04:48:23;;;;;;;6.10;1.50;;;;;;;16.27;100.00;101667.13;5077354;28;20040;-72
2022/08/02 04:50:49;;;;;;;3.10;1.42;;;;;;;16.35;100.00;101668.03;5079661;28;20090;-70
2022/08/02 04:53:15;;;;;;;9.05;1.92;;;;;;;16.40;100.00;101666.31;5074723;28;20048;-72
2022/08/02 04:55:41;;;;;;;6.10;1.65;;;;;;;16.43;100.00;101661.00;5075858;28;20487;-72
2022/08/02 04:58:06;;;;;;;4.65;1.55;;;;;;;16.46;100.00;101655.69;5075107;28;20024;-72
2022/08/02 05:00:31;;;;;;;8.27;2.00;;;;;;;16.51;100.00;101658.41;5082294;28;20024;-72
2022/08/02 05:02:58;;;;;;;6.10;1.58;;;;;;;16.54;100.00;101657.53;5074779;28;20020;-72
2022/08/02 05:05:24;;;;;;;6.75;2.33;;;;;;;16.56;100.00;101658.41;5074912;28;20043;-71
2022/08/02 05:07:49;;;;;;;3.75;1.67;;;;;;;16.60;100.00;101661.06;5074530;28;20029;-72
2022/08/02 05:10:14;;;;;;;4.32;1.58;;;;;;;16.75;100.00;101660.25;5072873;28;20051;-73
2022/08/02 05:12:40;;;;;;;5.32;1.75;;;;;;;16.85;100.00;101654.09;5076818;28;20024;-72
2022/08/02 05:15:06;;;;;;;4.65;1.75;;;;;;;16.89;100.00;101663.03;5075678;28;20071;-72
2022/08/02 05:17:32;;;;;;;5.47;1.58;;;;;;;16.91;100.00;101660.38;5074366;28;20043;-71
2022/08/02 05:19:57;;;;;;;7.40;1.83;;;;;;;16.91;100.00;101665.69;5078484;28;20020;-72
2022/08/02 05:22:23;;;;;;;4.00;1.60;;;;;;;16.93;100.00;101677.19;5090825;28;20081;-71
2022/08/02 05:24:48;;;;;;;5.05;1.60;;;;;;;16.95;100.00;101676.31;5079035;28;20078;-72
2022/08/02 05:27:14;;;;;;;3.33;1.80;;;;;;;16.98;100.00;101678.09;5070235;28;20484;-71
2022/08/02 05:29:39;;;;;;;3.85;2.10;;;;;;;17.02;100.00;101675.47;5073689;28;20032;-72
2022/08/02 05:32:05;;;;;;;7.63;1.73;;;;;;;17.10;100.00;101664.84;5075204;28;20028;-72
2022/08/02 05:34:30;;;;;;;5.18;1.63;;;;;;;17.13;100.00;101666.63;5075342;28;20028;-67
2022/08/02 05:36:55;;;;;;;5.20;1.90;;;;;;;17.16;100.00;101662.22;5074624;28;20048;-72
2022/08/02 05:39:21;;;;;;;3.28;1.70;;;;;;;17.19;100.00;101662.22;5073372;28;20450;-73
2022/08/02 05:41:46;;;;;;;3.50;1.80;;;;;;;17.23;100.00;101649.81;5074651;28;20021;-73
2022/08/02 05:44:12;;;;;;;3.42;1.80;;;;;;;17.29;100.00;101643.59;5069509;28;20386;-73
2022/08/02 05:46:37;;;;;;;4.68;1.95;;;;;;;17.31;100.00;101656.03;5074272;28;20024;-73
2022/08/02 05:49:03;;;;;;;4.07;2.08;;;;;;;17.29;100.00;101656.91;5072284;28;20024;-72
2022/08/02 05:51:58;;;;;;;4.18;2.10;;;;;;;17.31;100.00;101658.69;5070696;28;20036;-73
2022/08/02 05:54:39;;;;;;;7.10;2.42;;;;;;;17.36;100.00;101658.69;5074789;28;20037;-72
2022/08/02 05:57:16;;;;;;;5.60;2.63;;;;;;;17.42;100.00;101663.16;5072055;28;20088;-72
2022/08/02 05:59:56;;;;;;;11.18;2.78;;;;;;;17.50;100.00;101648.97;5065076;28;20081;-73
2022/08/02 06:02:29;;;;;;;4.85;2.17;;;;;;;17.65;100.00;101649.88;5068079;28;20423;-72
2022/08/02 06:05:03;;;;;;;6.60;2.43;;;;;;;17.76;100.00;101653.41;5067076;28;20028;-72
2022/08/02 06:07:33;;;;;;;5.63;2.75;;;;;;;17.86;100.00;101655.19;5074534;28;20288;-72
2022/08/02 06:10:02;;;;;;;8.88;3.33;;;;;;;17.97;100.00;101656.97;5079219;28;20027;-72
2022/08/02 06:12:31;;;;;;;11.18;3.75;;;;;;;17.99;100.00;101657.88;5074931;28;20032;-72
2022/08/02 06:14:58;;;;;;;9.38;3.72;;;;;;;18.07;100.00;101656.06;5073256;28;20024;-72
2022/08/02 06:17:24;;;;;;;8.52;3.60;;;;;;;18.10;100.00;101660.50;5064778;28;20033;-71
2022/08/02 06:19:52;;;;;;;7.97;3.67;;;;;;;18.14;100.00;101649.84;5069806;28;20150;-73
2022/08/02 06:22:18;;;;;;;9.52;3.90;;;;;;;18.21;100.00;101656.03;5069257;28;20028;-73
2022/08/02 06:24:45;;;;;;;15.13;4.40;;;;;;;18.31;100.00;101648.91;5074749;28;20031;-73
2022/08/02 06:27:14;;;;;;;9.38;3.90;;;;;;;18.35;100.00;101645.34;5066647;28;20047;-73
2022/08/02 06:29:41;;;;;;;7.82;4.63;;;;;;;18.39;100.00;101649.78;5071356;28;20021;-73
2022/08/02 06:32:08;;;;;;;18.77;5.80;;;;;;;18.44;100.00;101645.31;5072826;28;20563;-72
2022/08/02 06:34:37;;;;;;;9.80;4.63;;;;;;;18.53;100.00;101658.63;5073841;28;20528;-72
2022/08/02 06:37:18;;;;;;;9.65;5.47;;;;;;;18.62;100.00;101651.47;5074845;28;20445;-74
2022/08/02 06:39:48;;;;;;;13.63;6.57;;;;;;;18.67;100.00;101655.03;5070531;28;20042;-72
2022/08/02 06:42:20;;;;;;;23.55;8.38;;;;;;;18.72;100.00;101647.91;5072531;28;20032;-72
2022/08/02 06:44:45;;;;;;;17.92;10.13;;;;;;;18.72;100.00;101653.22;5064154;28;20056;-72
2022/08/02 06:47:11;;;;;;;18.70;9.98;;;;;;;18.73;100.00;101652.31;5063702;28;20055;-73
2022/08/02 06:49:36;;;;;;;20.85;10.85;;;;;;;18.67;100.00;101657.69;5066647;28;20024;-73
2022/08/02 06:52:03;;;;;;;18.30;10.25;;;;;;;18.68;100.00;101662.13;5068342;28;20025;-72
2022/08/02 06:54:28;;;;;;;19.90;10.25;;;;;;;18.79;100.00;101651.41;5067397;28;20112;-72
2022/08/02 06:56:53;;;;;;;16.13;9.48;;;;;;;18.86;100.00;101659.38;5071963;28;20116;-73
2022/08/02 06:59:19;;;;;;;18.38;10.77;;;;;;;18.94;100.00;101654.03;5054917;28;20029;-74
2022/08/02 07:01:44;;;;;;;19.58;9.98;;;;;;;19.00;100.00;101650.44;5054573;28;20135;-74
2022/08/02 07:04:09;;;;;;;15.82;9.52;;;;;;;19.11;100.00;101648.59;5078913;28;20456;-73
2022/08/02 07:06:35;;;;;;;19.08;9.00;;;;;;;19.10;100.00;101645.94;5072705;28;20483;-72
2022/08/02 07:09:00;;;;;;;19.45;9.85;;;;;;;19.21;100.00;101649.44;5064215;28;20074;-73
2022/08/02 07:11:25;;;;;;;23.08;11.18;;;;;;;19.27;100.00;101640.50;5074954;28;20028;-73
2022/08/02 07:13:51;;;;;;;21.75;11.65;;;;;;;19.33;100.00;101632.44;5073455;28;20107;-68
2022/08/02 07:16:16;;;;;;;21.85;11.40;;;;;;;19.37;100.00;101636.84;5072172;28;20524;-67
2022/08/02 07:18:42;;;;;;;21.98;11.63;;;;;;;19.46;100.00;101628.78;5071280;28;20036;-68
2022/08/02 07:21:07;;;;;;;19.98;11.95;;;;;;;19.55;100.00;101634.06;5073579;28;20400;-76
2022/08/02 07:23:33;;;;;;;25.90;12.40;;;;;;;19.66;100.00;101625.06;5076726;28;20103;-71
2022/08/02 07:25:59;;;;;;;27.83;13.63;;;;;;;19.74;100.00;101616.97;5071581;28;20020;-72
2022/08/02 07:28:24;;;;;;;22.90;12.20;;;;;;;19.86;100.00;101616.94;5069554;28;20402;-70
2022/08/02 07:30:49;;;;;;;20.00;12.07;;;;;;;20.02;100.00;101628.31;5070385;28;20035;-70
2022/08/02 07:33:15;;;;;;;22.40;11.93;;;;;;;20.06;100.00;101614.03;5069093;28;20040;-71
2022/08/02 07:35:40;;;;;;;22.60;11.70;;;;;;;20.12;100.00;101608.63;5068745;28;20361;-71
2022/08/02 07:38:06;;;;;;;21.75;12.45;;;;;;;20.19;100.00;101607.66;5070687;28;20028;-71
2022/08/02 07:40:32;;;;;;;24.38;13.95;;;;;;;20.19;100.00;101613.00;5062046;28;20130;-70
2022/08/02 07:42:58;;;;;;;23.98;13.90;;;;;;;20.31;100.00;101616.44;5063774;28;20024;-72
2022/08/02 07:45:24;;;;;;;24.67;14.90;;;;;;;20.41;100.00;101620.75;5058407;28;20150;-72
2022/08/02 07:47:50;;;;;;;24.98;14.93;;;;;;;20.58;100.00;101614.31;5066110;28;20047;-72
2022/08/02 07:50:17;;;;;;;26.02;17.20;;;;;;;20.66;100.00;101615.09;5061371;28;20037;-71
2022/08/02 07:52:43;;;;;;;28.63;18.13;;;;;;;20.78;100.00;101609.66;5065055;28;20408;-71
2022/08/02 07:55:10;;;;;;;30.35;18.92;;;;;;;20.80;100.00;101610.50;5079117;28;20039;-70
2022/08/02 07:57:37;;;;;;;27.30;19.00;;;;;;;20.76;100.00;101599.88;5070390;28;20424;-70
2022/08/02 08:00:05;;;;;;;23.02;17.75;;;;;;;20.81;100.00;101598.00;5075320;28;20402;-72
2022/08/02 08:02:31;;;;;;;24.85;15.18;;;;;;;20.92;100.00;101605.88;5065154;28;20100;-72
2022/08/02 08:04:57;;;;;;;24.05;16.80;;;;;;;20.92;100.00;101611.22;5059347;28;20435;-71
2022/08/02 08:07:23;;;;;;;24.20;14.20;;;;;;;21.01;100.00;101603.06;5076796;28;20042;-72
2022/08/02 08:09:49;;;;;;;20.17;12.57;;;;;;;21.09;100.00;101603.81;5092816;28;20024;-73
2022/08/02 08:12:16;;;;;;;13.05;11.18;;;;;;;21.16;100.00;101604.63;5068025;28;20074;-73
2022/08/02 08:14:41;;;;;;;16.70;11.27;;;;;;;21.28;100.00;101599.06;5067023;28;20025;-71
2022/08/02 08:17:07;;;;;;;13.95;9.40;;;;;;;21.39;100.00;101602.47;5072914;28;20021;-73
2022/08/02 08:19:33;;;;;;;15.88;6.97;;;;;;;21.43;100.00;101602.41;5058933;28;20128;-72
2022/08/02 08:21:59;;;;;;;13.82;7.07;;;;;;;21.47;100.00;101596.09;5069759;28;20060;-73
2022/08/02 08:24:28;;;;;;;12.48;7.40;;;;;;;21.55;100.00;101595.13;5069160;28;20530;-73
2022/08/02 08:26:55;;;;;;;10.68;6.97;;;;;;;21.62;100.00;101592.31;5059342;28;20029;-72
2022/08/02 08:29:21;;;;;;;12.93;6.13;;;;;;;21.70;100.00;101593.97;5070790;28;20079;-74
2022/08/02 08:31:46;;;;;;;9.90;5.75;;;;;;;21.81;100.00;101604.47;5073877;28;20036;-73
2022/08/02 08:34:12;;;;;;;8.35;5.45;;;;;;;21.86;100.00;101601.72;5087069;28;20024;-73
2022/08/02 08:36:38;;;;;;;8.75;5.60;;;;;;;22.06;100.00;101604.88;5074847;28;20051;-74
2022/08/02 08:39:03;;;;;;;8.27;5.93;;;;;;;22.19;100.00;101605.56;5074575;28;20032;-73
2022/08/02 08:41:29;;;;;;;9.73;5.53;;;;;;;22.21;100.00;101609.06;5079955;28;20028;-72
2022/08/02 08:43:54;;;;;;;11.90;6.43;;;;;;;22.30;100.00;101615.16;5059724;28;20523;-72
2022/08/02 08:46:26;;;;;;;10.10;7.03;;;;;;;22.15;100.00;101610.97;5069567;28;20035;-72
2022/08/02 08:48:57;;;;;;;14.43;6.18;;;;;;;22.29;100.00;101606.25;5073563;28;20479;-72
2022/08/02 08:51:26;;;;;;;8.90;6.55;;;;;;;22.34;100.00;101607.06;5072487;28;20023;-71
2022/08/02 08:53:53;;;;;;;15.48;7.60;;;;;;;22.30;100.00;101612.47;5053140;28;20409;-72
2022/08/02 08:56:19;;;;;;;9.60;6.97;;;;;;;22.33;100.00;101607.06;5066081;28;20029;-72
2022/08/02 08:58:48;;;;;;;11.77;7.07;;;;;;;22.41;100.00;101605.16;5053555;28;20456;-72
2022/08/02 09:01:15;;;;;;;12.80;7.03;;;;;;;22.46;100.00;101608.59;5073276;28;20028;-72
2022/08/02 09:03:41;;;;;;;7.05;5.90;;;;;;;22.47;100.00;101607.69;5084147;28;20352;-73
2022/08/02 09:06:07;;;;;;;14.82;6.10;;;;;;;22.56;100.00;101612.84;5077016;28;20039;-74
2022/08/02 09:08:32;;;;;;;7.60;5.20;;;;;;;22.59;100.00;101616.41;5076033;28;20024;-70
2022/08/02 09:10:58;;;;;;;9.27;6.35;;;;;;;22.58;100.00;101628.91;5073934;28;20095;-72
2022/08/02 09:13:28;;;;;;;18.42;6.07;;;;;;;22.66;100.00;101616.22;5072186;28;20020;-72
2022/08/02 09:15:55;;;;;;;8.48;5.28;;;;;;;22.76;100.00;101606.16;5070763;28;20450;-72
2022/08/02 09:18:28;;;;;;;12.63;7.00;;;;;;;22.89;100.00;101612.16;5094479;28;20042;-73
2022/08/02 09:20:59;;;;;;;12.43;6.05;;;;;;;22.90;100.00;101620.16;5094501;28;20032;-73
2022/08/02 09:23:25;;;;;;;8.65;5.60;;;;;;;23.03;100.00;101619.88;5078948;28;20028;-72
2022/08/02 09:25:58;;;;;;;10.60;5.32;;;;;;;23.31;100.00;101621.97;5085471;28;20025;-73
2022/08/02 09:28:32;;;;;;;11.20;5.63;;;;;;;23.27;100.00;101618.47;5074650;28;20024;-72
2022/08/02 09:31:19;;;;;;;7.85;5.13;;;;;;;23.35;100.00;101620.97;5067662;28;20136;-72
2022/08/02 09:33:50;;;;;;;8.95;4.85;;;;;;;23.51;100.00;101625.03;5071535;28;20480;-72
2022/08/02 09:36:16;;;;;;;9.15;4.97;;;;;;;23.35;100.00;101629.03;5095224;28;20062;-72
2022/08/02 09:39:13;;;;;;;6.40;5.00;;;;;;;23.42;100.00;101625.25;5088389;28;20039;-73
2022/08/02 09:41:40;;;;;;;5.80;4.45;;;;;;;23.43;100.00;101624.34;5078935;28;20039;-73
2022/08/02 09:44:08;;;;;;;7.35;5.45;;;;;;;23.40;100.00;101627.13;5060475;28;20112;-72
2022/08/02 09:46:40;;;;;;;8.82;5.35;;;;;;;23.44;100.00;101620.75;5055249;28;20029;-73
2022/08/02 09:49:11;;;;;;;11.95;5.35;;;;;;;23.40;100.00;101633.34;5077998;28;20029;-72
2022/08/02 09:51:38;;;;;;;13.43;6.32;;;;;;;23.29;100.00;101637.22;5075109;28;20028;-72
2022/08/02 09:54:25;;;;;;;8.07;5.47;;;;;;;23.24;100.00;101643.59;5074833;28;20041;-71
2022/08/02 09:56:58;;;;;;;8.90;5.63;;;;;;;23.16;100.00;101650.06;5060169;28;20025;-72
2022/08/02 09:59:25;;;;;;;10.00;5.72;;;;;;;23.33;100.00;101645.19;5078493;28;20032;-72
2022/08/02 10:01:52;;;;;;;11.35;6.00;;;;;;;23.34;100.00;101646.06;5072278;28;20113;-72
2022/08/02 10:04:23;;;;;;;11.15;5.47;;;;;;;23.55;100.00;101642.84;5064217;28;20036;-73
2022/08/02 10:06:50;;;;;;;15.38;6.35;;;;;;;23.63;100.00;101650.72;5074823;28;20483;-74
2022/08/02 10:09:16;;;;;;;8.48;5.70;;;;;;;23.55;100.00;101652.72;5066768;28;20024;-72
2022/08/02 10:11:41;;;;;;;8.75;4.53;;;;;;;23.76;100.00;101636.97;5080027;28;20511;-72
2022/08/02 10:14:09;;;;;;;13.48;6.03;;;;;;;23.74;100.00;101634.31;5076544;28;20055;-73
2022/08/02 10:16:37;;;;;;;11.23;5.80;;;;;;;23.87;100.00;101629.50;5082593;28;20536;-73
2022/08/02 10:19:03;;;;;;;15.93;5.47;;;;;;;23.94;100.00;101630.25;5091359;28;20055;-72
2022/08/02 10:21:48;;;;;;;9.43;5.47;;;;;;;23.99;100.00;101633.69;5074611;28;20035;-73
2022/08/02 10:24:18;;;;;;;17.67;6.07;;;;;;;23.90;100.00;101632.13;5074716;28;20028;-72
2022/08/02 10:26:45;;;;;;;8.25;5.32;;;;;;;23.96;100.00;101629.28;5074793;28;20468;-72
2022/08/02 10:29:16;;;;;;;11.48;5.32;;;;;;;24.13;100.00;101634.19;5057139;28;20030;-72
2022/08/02 10:31:48;;;;;;;11.77;6.43;;;;;;;24.20;100.00;101625.03;5074370;28;20419;-73
2022/08/02 10:34:17;;;;;;;12.65;5.90;;;;;;;24.35;100.00;101629.09;5067192;28;20136;-72
2022/08/02 10:36:44;;;;;;;8.70;5.90;;;;;;;24.29;100.00;101625.69;5081412;28;20066;-73
2022/08/02 10:39:11;;;;;;;8.45;5.75;;;;;;;24.31;100.00;101613.97;5075461;28;20070;-72
2022/08/02 10:41:44;;;;;;;8.93;5.85;;;;;;;24.56;100.00;101618.63;5072794;28;20373;-72
2022/08/02 10:44:20;;;;;;;7.32;4.70;;;;;;;24.62;97.47;101617.59;5082626;28;20029;-74
2022/08/02 10:46:45;;;;;;;8.20;4.28;;;;;;;24.50;97.08;101617.00;5073735;28;20054;-74
2022/08/02 10:49:13;;;;;;;8.80;4.60;;;;;;;24.42;96.11;101621.75;5088293;28;20032;-71
2022/08/02 10:52:06;;;;;;;13.30;5.43;;;;;;;24.69;94.31;101617.38;5062523;28;20107;-73
2022/08/02 10:54:40;;;;;;;13.27;4.63;;;;;;;24.89;90.49;101616.78;5077683;28;20032;-72
2022/08/02 10:57:16;;;;;;;10.50;4.85;;;;;;;24.90;92.92;101617.63;5072797;28;20032;-72
2022/08/02 10:59:42;;;;;;;8.43;5.20;;;;;;;25.08;92.93;101616.16;5077200;28;20028;-72
2022/08/02 11:02:07;;;;;;;6.65;4.90;;;;;;;25.15;91.43;101625.84;5073786;28;20021;-72
2022/08/02 11:04:35;;;;;;;9.00;5.28;;;;;;;25.06;90.64;101612.66;5089772;28;20103;-73
2022/08/02 11:07:18;;;;;;;8.15;4.63;;;;;;;25.10;92.09;101613.47;5073375;28;20473;-72
2022/08/02 11:09:47;;;;;;;;;;;;;;;24.86;93.57;101611.47;5076063;28;20028;-73
2022/08/02 11:12:18;;;;;;;7.57;4.30;;;;;;;25.04;93.31;101603.72;5072876;28;19917;-72
2022/08/02 11:14:57;;;;;;;12.80;5.22;;;;;;;25.34;93.31;101601.00;5077465;28;20028;-72
2022/08/02 11:17:23;;;;;;;9.90;5.43;;;;;;;25.23;89.06;101599.53;5053964;28;20024;-73
2022/08/02 11:20:26;;;;;;;7.88;4.30;;;;;;;25.37;87.45;101607.19;5059587;28;20036;-73